Time;durP1;ratioP1;P1;durP2;ratioP2;P2;SDS_P1;SDS_P2;PMS_P1;PMS_P2;Temp;Humidity;BMP_temperature;BMP_pressure;BME280_temperature;BME280_humidity;BME280_pressure;Samples;Min_cycle;Max_cycle;Signal;HPM_P1;HPM_P2
2022/11/05 00:10:24;;;;;;;41.97;26.97;;;;;;;11.49;99.02;94271.38;5093999;28;20288;-87
2022/11/05 00:18:22;;;;;;;47.40;26.77;;;;;;;11.21;100.00;94261.78;5098427;28;20298;-82
2022/11/05 00:20:49;;;;;;;46.17;25.13;;;;;;;11.26;100.00;94259.25;5091902;28;20208;-85
2022/11/05 00:26:01;;;;;;;47.90;27.03;;;;;;;11.54;100.00;94262.91;5087890;28;20212;-82
2022/11/05 00:28:30;;;;;;;46.43;26.23;;;;;;;11.45;100.00;94249.47;5089892;28;20268;-83
2022/11/05 00:31:01;;;;;;;45.63;27.23;;;;;;;11.56;100.00;94260.84;5088359;28;20602;-83
2022/11/05 00:33:29;;;;;;;50.13;26.17;;;;;;;11.59;100.00;94263.78;5089972;28;20209;-81
2022/11/05 00:35:56;;;;;;;45.20;26.70;;;;;;;11.43;100.00;94243.69;5090110;28;20287;-83
2022/11/05 00:38:23;;;;;;;49.53;25.63;;;;;;;11.40;100.00;94225.94;5090447;28;20200;-82
2022/11/05 00:40:50;;;;;;;47.63;26.17;;;;;;;11.61;100.00;94250.53;5092146;28;20228;-83
2022/11/05 00:46:01;;;;;;;43.57;26.13;;;;;;;11.60;100.00;94252.31;5088024;28;20195;-83
2022/11/05 00:51:13;;;;;;;48.47;25.10;;;;;;;11.51;100.00;94245.94;5090870;28;20223;-83
2022/11/05 00:53:40;;;;;;;46.47;25.53;;;;;;;11.35;100.00;94242.28;5091828;28;20224;-84
2022/11/05 00:56:07;;;;;;;44.07;25.00;;;;;;;11.18;100.00;94243.22;5090661;28;20299;-83
2022/11/05 00:58:34;;;;;;;40.63;24.70;;;;;;;10.90;100.00;94254.41;5090324;28;20262;-83
2022/11/05 01:01:02;;;;;;;43.50;26.37;;;;;;;10.96;100.00;94243.09;5090674;28;20204;-83
2022/11/05 01:03:35;;;;;;;42.60;25.73;;;;;;;11.06;100.00;94235.47;5090572;28;20234;-84
2022/11/05 01:06:08;;;;;;;46.90;27.37;;;;;;;11.11;100.00;94230.34;5090879;28;20212;-84
2022/11/05 01:08:35;;;;;;;56.40;27.83;;;;;;;11.27;100.00;94231.44;5090841;28;20687;-83
2022/11/05 01:11:09;;;;;;;47.33;26.70;;;;;;;11.40;100.00;94226.75;5090044;28;20224;-85
2022/11/05 01:13:37;;;;;;;43.20;25.97;;;;;;;11.55;100.00;94233.22;5090025;28;20568;-84
2022/11/05 01:16:10;;;;;;;44.83;26.43;;;;;;;11.63;100.00;94225.84;5090264;28;20205;-83
2022/11/05 01:18:38;;;;;;;45.57;26.53;;;;;;;11.73;100.00;94223.44;5090744;28;20217;-83
2022/11/05 01:21:13;;;;;;;45.77;27.03;;;;;;;11.77;100.00;94215.97;5090171;28;20193;-83
2022/11/05 01:23:40;;;;;;;41.20;25.73;;;;;;;11.67;100.00;94197.53;5089478;28;20215;-84
2022/11/05 01:26:07;;;;;;;44.87;26.20;;;;;;;11.80;99.97;94208.44;5088518;28;20200;-85
2022/11/05 01:28:33;;;;;;;40.13;25.60;;;;;;;11.81;100.00;94212.63;5090324;28;20691;-84
2022/11/05 01:31:00;;;;;;;43.70;25.50;;;;;;;11.84;100.00;94213.97;5089503;28;20640;-83
2022/11/05 01:33:27;;;;;;;45.10;26.53;;;;;;;11.70;100.00;94216.09;5089303;28;20203;-82
2022/11/05 01:35:58;;;;;;;42.93;25.30;;;;;;;11.49;100.00;94187.34;5089050;28;20204;-83
2022/11/05 01:38:25;;;;;;;44.63;26.80;;;;;;;11.52;100.00;94198.06;5090127;28;20200;-83
2022/11/05 01:40:53;;;;;;;42.50;26.03;;;;;;;11.58;100.00;94196.34;5090177;28;20196;-83
2022/11/05 01:43:23;;;;;;;48.07;26.57;;;;;;;11.46;100.00;94193.78;5087034;28;20225;-85
2022/11/05 01:45:52;;;;;;;47.90;27.20;;;;;;;10.97;100.00;94161.44;5086638;28;20204;-83
2022/11/05 01:48:23;;;;;;;42.83;26.80;;;;;;;10.78;100.00;94188.66;5088023;28;20196;-83
2022/11/05 01:50:57;;;;;;;48.47;28.03;;;;;;;10.64;100.00;94189.94;5086614;28;20216;-84
2022/11/05 01:53:30;;;;;;;47.53;27.50;;;;;;;10.65;100.00;94166.28;5089570;28;20284;-83
2022/11/05 01:56:00;;;;;;;46.40;26.83;;;;;;;10.79;100.00;94180.59;5088966;28;20679;-83
2022/11/05 01:58:32;;;;;;;47.57;27.67;;;;;;;10.89;100.00;94182.63;5089016;28;20207;-83
2022/11/05 02:01:12;;;;;;;48.53;27.60;;;;;;;11.04;100.00;94180.31;5090072;28;20212;-96
2022/11/05 02:03:40;;;;;;;49.50;27.50;;;;;;;11.11;100.00;94169.78;5102430;28;20200;-91
2022/11/05 02:06:08;;;;;;;50.47;27.17;;;;;;;11.07;100.00;94140.84;5093425;28;20196;-92
2022/11/05 02:08:49;;;;;;;46.47;27.17;;;;;;;10.85;100.00;94107.94;5096841;28;20189;-93
2022/11/05 02:11:19;;;;;;;46.67;27.20;;;;;;;11.15;100.00;94140.47;5102591;28;20361;-95
2022/11/05 02:13:48;;;;;;;48.70;28.03;;;;;;;10.86;100.00;94110.28;5104719;28;20254;-93
2022/11/05 02:16:24;;;;;;;55.10;28.63;;;;;;;11.11;100.00;94146.38;5104929;28;20632;-90
2022/11/05 02:19:01;;;;;;;49.93;27.07;;;;;;;10.92;100.00;94163.97;5095298;28;20620;-94
2022/11/05 02:21:58;;;;;;;49.60;27.37;;;;;;;10.34;100.00;94119.94;5096625;28;20290;-93
2022/11/05 02:25:09;;;;;;;55.27;28.87;;;;;;;10.49;100.00;94163.63;5088607;28;20208;-86
2022/11/05 02:28:16;;;;;;;51.60;27.47;;;;;;;10.57;100.00;94166.66;5053969;28;20199;-89
2022/11/05 02:30:49;;;;;;;44.20;28.27;;;;;;;10.68;100.00;94165.84;5069551;28;20220;-89
2022/11/05 02:33:29;;;;;;;49.83;26.87;;;;;;;10.73;100.00;94165.97;5086662;28;20196;-89
2022/11/05 02:36:07;;;;;;;49.47;27.60;;;;;;;10.84;100.00;94164.34;5088199;28;20204;-88
2022/11/05 02:38:41;;;;;;;50.00;28.20;;;;;;;10.93;100.00;94173.34;5090051;28;20199;-88
2022/11/05 02:41:18;;;;;;;44.90;27.20;;;;;;;10.99;100.00;94171.63;5090382;28;20221;-85
2022/11/05 02:44:00;;;;;;;46.60;26.97;;;;;;;10.97;100.00;94161.44;5088621;28;20185;-89
2022/11/05 02:46:45;;;;;;;46.70;27.03;;;;;;;10.87;100.00;94143.06;5088709;28;20651;-88
2022/11/05 02:49:22;;;;;;;44.97;26.50;;;;;;;10.93;100.00;94139.56;5090684;28;20209;-88
2022/11/05 02:51:56;;;;;;;51.23;27.30;;;;;;;10.99;100.00;94151.63;5092320;28;20694;-89
2022/11/05 02:54:27;;;;;;;52.03;27.67;;;;;;;11.00;100.00;94148.00;5092025;28;20218;-88
2022/11/05 02:56:57;;;;;;;52.13;26.67;;;;;;;10.92;100.00;94129.38;5094587;28;20232;-89
2022/11/05 02:59:24;;;;;;;46.67;27.90;;;;;;;11.16;100.00;94164.66;5090489;28;20279;-88
2022/11/05 03:01:53;;;;;;;51.17;27.70;;;;;;;11.10;100.00;94173.41;5090443;28;20197;-87
2022/11/05 03:04:22;;;;;;;51.97;27.47;;;;;;;11.04;100.00;94158.72;5087573;28;20204;-87
2022/11/05 03:07:18;;;;;;;51.30;27.73;;;;;;;11.17;100.00;94172.22;5087953;28;20211;-86
2022/11/05 03:10:12;;;;;;;43.87;27.23;;;;;;;11.13;100.00;94173.72;5087171;28;20254;-87
2022/11/05 03:12:51;;;;;;;48.67;27.37;;;;;;;11.00;100.00;94161.00;5089955;28;20217;-86
2022/11/05 03:15:30;;;;;;;46.27;27.80;;;;;;;10.68;100.00;94146.84;5088947;28;20204;-85
2022/11/05 03:18:09;;;;;;;49.73;28.70;;;;;;;10.38;100.00;94178.22;5090748;28;20233;-87
2022/11/05 03:20:39;;;;;;;47.30;28.73;;;;;;;9.84;100.00;94152.59;5092494;28;20204;-86
2022/11/05 03:23:12;;;;;;;48.37;28.43;;;;;;;9.95;100.00;94167.38;5091019;28;20189;-85
2022/11/05 03:25:43;;;;;;;48.53;28.87;;;;;;;10.05;100.00;94165.00;5091007;28;20191;-85
2022/11/05 03:28:12;;;;;;;48.00;27.80;;;;;;;9.94;100.00;94164.00;5090192;28;20204;-86
2022/11/05 03:30:42;;;;;;;53.03;29.20;;;;;;;10.10;100.00;94175.50;5090768;28;20224;-85
2022/11/05 03:33:14;;;;;;;49.43;28.17;;;;;;;9.82;100.00;94150.22;5089272;28;20208;-85
2022/11/05 03:35:46;;;;;;;51.40;28.20;;;;;;;10.17;100.00;94189.97;5088116;28;20273;-85
2022/11/05 03:38:19;;;;;;;51.97;29.83;;;;;;;10.09;100.00;94176.53;5089506;28;20209;-85
2022/11/05 03:40:49;;;;;;;48.43;27.23;;;;;;;10.10;100.00;94196.28;5092557;28;20196;-86
2022/11/05 03:43:19;;;;;;;49.47;27.93;;;;;;;9.87;100.00;94204.81;5088798;28;20259;-86
2022/11/05 03:45:54;;;;;;;48.53;26.87;;;;;;;9.41;100.00;94158.06;5088210;28;20215;-85
2022/11/05 03:48:25;;;;;;;44.37;28.10;;;;;;;9.66;100.00;94205.38;5089261;28;20207;-85
2022/11/05 03:50:59;;;;;;;49.37;27.40;;;;;;;9.55;100.00;94168.00;5090668;28;20706;-87
2022/11/05 03:53:29;;;;;;;52.13;27.93;;;;;;;9.84;100.00;94188.94;5092867;28;20196;-87
2022/11/05 03:56:02;;;;;;;49.97;28.27;;;;;;;9.92;100.00;94186.78;5093094;28;20200;-87
2022/11/05 03:58:30;;;;;;;51.50;27.23;;;;;;;10.06;100.00;94182.16;5095638;28;20687;-89
2022/11/05 04:01:01;;;;;;;52.67;27.93;;;;;;;10.31;100.00;94210.50;5094947;28;20197;-88
2022/11/05 04:03:34;;;;;;;46.77;27.17;;;;;;;10.22;100.00;94190.09;5095739;28;20204;-87
2022/11/05 04:14:15;;;;;;;48.13;26.07;;;;;;;10.63;100.00;94209.91;5088875;28;20203;-87
2022/11/05 04:24:52;;;;;;;47.17;27.70;;;;;;;10.85;100.00;94217.13;5092254;28;20211;-88
2022/11/05 04:27:19;;;;;;;44.37;26.70;;;;;;;10.85;100.00;94217.88;5093043;28;20227;-87
2022/11/05 04:32:30;;;;;;;58.20;26.20;;;;;;;10.75;100.00;94230.69;5094479;28;20204;-89
2022/11/05 04:34:59;;;;;;;53.83;30.87;;;;;;;10.70;100.00;94220.19;5094657;28;20211;-86
2022/11/05 04:37:26;;;;;;;59.43;32.03;;;;;;;10.69;100.00;94224.59;5093592;28;20208;-87
2022/11/05 04:39:52;;;;;;;49.37;29.87;;;;;;;10.57;100.00;94226.41;5094581;28;20222;-87
2022/11/05 04:42:19;;;;;;;55.60;30.20;;;;;;;10.63;100.00;94235.09;5094634;28;20212;-89
2022/11/05 04:44:46;;;;;;;53.30;29.07;;;;;;;10.65;100.00;94244.25;5095934;28;20207;-87
2022/11/05 04:47:13;;;;;;;56.33;29.53;;;;;;;10.42;100.00;94243.50;5094975;28;20197;-88
2022/11/05 04:49:40;;;;;;;55.00;31.10;;;;;;;10.06;100.00;94247.88;5094392;28;20200;-88
2022/11/05 04:52:08;;;;;;;50.00;29.67;;;;;;;9.44;100.00;94184.34;5094475;28;20221;-88
2022/11/05 04:54:35;;;;;;;53.20;32.13;;;;;;;9.72;100.00;94217.47;5094918;28;20203;-88
2022/11/05 04:57:02;;;;;;;52.83;31.53;;;;;;;9.65;100.00;94190.81;5094523;28;20196;-87
2022/11/05 04:59:29;;;;;;;56.80;30.73;;;;;;;9.85;100.00;94209.47;5093777;28;20201;-87
2022/11/05 05:01:58;;;;;;;61.23;32.00;;;;;;;9.74;100.00;94194.66;5092735;28;20201;-85
2022/11/05 05:04:25;;;;;;;54.53;31.40;;;;;;;9.79;100.00;94238.09;5093349;28;20200;-87
2022/11/05 05:06:51;;;;;;;57.53;31.03;;;;;;;9.70;100.00;94235.03;5093560;28;20671;-86
2022/11/05 05:09:20;;;;;;;59.67;32.50;;;;;;;9.69;100.00;94244.66;5103881;28;20193;-89
2022/11/05 05:11:47;;;;;;;56.37;31.77;;;;;;;9.82;100.00;94250.63;5094685;28;20205;-88
2022/11/05 05:14:14;;;;;;;65.50;30.90;;;;;;;9.61;100.00;94200.03;5098975;28;20200;-88
2022/11/05 05:16:41;;;;;;;57.60;30.37;;;;;;;10.01;100.00;94255.53;5093875;28;20326;-87
2022/11/05 05:21:57;;;;;;;54.73;31.47;;;;;;;10.29;100.00;94249.72;5577767;22;20242;-85
2022/11/05 05:24:26;;;;;;;56.33;31.60;;;;;;;10.37;100.00;94264.16;5037444;28;20677;-85
2022/11/05 05:26:53;;;;;;;70.10;33.57;;;;;;;10.33;100.00;94244.88;5042873;28;20666;-85
2022/11/05 05:29:19;;;;;;;62.43;32.97;;;;;;;10.55;100.00;94275.22;5041883;28;20198;-85
2022/11/05 05:31:46;;;;;;;58.97;32.93;;;;;;;10.27;100.00;94231.75;5039206;28;20273;-86
2022/11/05 05:34:14;;;;;;;68.43;35.17;;;;;;;10.65;100.00;94279.84;5036535;28;20690;-87
2022/11/05 05:36:41;;;;;;;64.07;35.67;;;;;;;10.64;100.00;94268.69;5033444;28;20206;-86
2022/11/05 05:39:09;;;;;;;67.50;38.03;;;;;;;10.77;100.00;94284.03;5032519;28;20241;-88
2022/11/05 05:41:37;;;;;;;70.80;37.60;;;;;;;10.80;100.00;94280.97;5043927;28;20210;-86
2022/11/05 05:44:05;;;;;;;66.23;38.50;;;;;;;10.70;100.00;94267.78;5037148;28;20216;-86
2022/11/05 05:46:32;;;;;;;71.63;37.90;;;;;;;10.76;100.00;94253.84;5040189;28;20209;-86
2022/11/05 05:48:59;;;;;;;62.20;36.30;;;;;;;10.79;100.00;94265.63;5042297;28;20273;-86
2022/11/05 05:51:26;;;;;;;65.00;36.67;;;;;;;11.01;100.00;94305.59;5035323;28;20987;-85
2022/11/05 05:53:53;;;;;;;69.00;35.40;;;;;;;10.95;100.00;94284.91;5035517;28;20317;-84
2022/11/05 05:56:20;;;;;;;67.07;37.27;;;;;;;11.09;100.00;94302.63;5032009;28;20202;-85
2022/11/05 05:58:48;;;;;;;72.63;37.97;;;;;;;10.62;100.00;94225.75;5040864;28;20201;-85
2022/11/05 06:01:17;;;;;;;71.87;36.73;;;;;;;11.04;100.00;94280.94;5034594;28;20221;-88
2022/11/05 06:03:43;;;;;;;75.17;38.53;;;;;;;10.95;100.00;94264.91;5038016;28;20202;-88
2022/11/05 06:06:13;;;;;;;76.60;38.87;;;;;;;11.13;100.00;94295.97;5035507;28;20201;-89
2022/11/05 06:08:40;;;;;;;77.63;40.57;;;;;;;11.17;100.00;94288.47;5025250;28;20202;-88
2022/11/05 06:11:08;;;;;;;65.70;37.03;;;;;;;11.32;100.00;94292.16;5036078;28;20310;-88
2022/11/05 06:13:36;;;;;;;74.87;38.47;;;;;;;11.21;100.00;94279.97;5029109;28;20202;-85
2022/11/05 06:16:06;;;;;;;72.13;39.07;;;;;;;11.00;100.00;94283.19;5039034;28;20290;-83
2022/11/05 06:18:34;;;;;;;70.43;36.97;;;;;;;10.80;100.00;94291.38;5036266;28;20660;-87
2022/11/05 06:21:02;;;;;;;78.33;39.63;;;;;;;10.69;100.00;94292.16;5033052;28;20214;-87
2022/11/05 06:23:31;;;;;;;66.60;35.80;;;;;;;10.62;100.00;94262.91;5042273;28;20206;-88
2022/11/05 06:26:01;;;;;;;55.57;33.70;;;;;;;10.74;100.00;94279.28;5042973;28;20249;-88
2022/11/05 06:28:29;;;;;;;63.47;34.27;;;;;;;10.74;100.00;94273.28;5041689;28;20210;-88
2022/11/05 06:30:56;;;;;;;61.27;33.77;;;;;;;10.89;100.00;94278.81;5036398;28;20758;-83
2022/11/05 06:33:25;;;;;;;64.17;32.03;;;;;;;10.75;100.00;94259.28;5030222;28;20199;-87
2022/11/05 06:35:52;;;;;;;55.73;31.73;;;;;;;11.15;100.00;94287.91;5038594;28;20198;-87
2022/11/05 06:38:19;;;;;;;64.30;30.90;;;;;;;11.25;100.00;94286.31;5037970;28;20203;-87
2022/11/05 06:40:46;;;;;;;56.63;31.30;;;;;;;11.44;100.00;94289.53;5018359;28;20202;-83
2022/11/05 06:43:13;;;;;;;52.17;30.97;;;;;;;11.55;100.00;94274.88;5027623;28;20202;-82
2022/11/05 06:45:42;;;;;;;49.93;29.73;;;;;;;11.73;100.00;94282.53;5027195;28;20873;-83
2022/11/05 06:48:12;;;;;;;54.43;31.13;;;;;;;11.88;100.00;94285.41;5034917;28;20210;-84
2022/11/05 06:50:44;;;;;;;55.80;30.93;;;;;;;12.03;100.00;94288.28;5038482;28;20595;-82
2022/11/05 06:53:11;;;;;;;52.00;30.53;;;;;;;12.19;100.00;94286.69;5019958;28;20624;-84
2022/11/05 06:55:38;;;;;;;56.00;29.70;;;;;;;12.29;100.00;94279.03;5023489;28;20206;-82
2022/11/05 06:58:06;;;;;;;54.10;29.23;;;;;;;12.41;100.00;94271.91;5037996;28;20221;-81
2022/11/05 07:00:33;;;;;;;55.10;29.97;;;;;;;12.46;100.00;94266.78;5028912;28;20211;-82
2022/11/05 07:03:04;;;;;;;48.47;28.20;;;;;;;12.49;100.00;94256.69;5025994;28;20187;-89
2022/11/05 07:05:31;;;;;;;48.40;28.10;;;;;;;12.61;100.00;94253.94;5033619;28;20206;-88
2022/11/05 07:08:00;;;;;;;50.93;27.80;;;;;;;12.87;100.00;94281.94;5041506;28;20214;-86
2022/11/05 07:10:27;;;;;;;43.83;26.23;;;;;;;13.00;100.00;94267.78;5036593;28;20685;-90
2022/11/05 07:12:53;;;;;;;48.47;27.07;;;;;;;13.05;98.70;94263.41;5034428;28;20242;-87
2022/11/05 07:15:21;;;;;;;45.87;26.90;;;;;;;13.11;97.72;94258.28;5029126;28;20207;-92
2022/11/05 07:17:48;;;;;;;45.17;25.53;;;;;;;13.17;98.08;94252.88;5031401;28;20731;-86
2022/11/05 07:20:15;;;;;;;43.60;25.47;;;;;;;13.34;96.95;94258.03;5035388;28;20201;-82
2022/11/05 07:22:43;;;;;;;45.93;27.27;;;;;;;13.43;97.20;94267.78;5035398;28;20227;-82
2022/11/05 07:25:13;;;;;;;44.77;25.27;;;;;;;13.60;96.29;94281.56;5037786;28;20218;-82
2022/11/05 07:27:40;;;;;;;46.07;25.90;;;;;;;13.74;95.40;94266.28;5039495;28;20216;-80
2022/11/05 07:30:10;;;;;;;46.00;27.33;;;;;;;13.84;95.49;94268.22;5033352;28;20207;-82
2022/11/05 07:32:38;;;;;;;42.97;26.67;;;;;;;13.87;94.43;94265.91;5044146;28;20270;-81
2022/11/05 07:35:06;;;;;;;47.67;27.60;;;;;;;13.98;93.99;94278.00;5034580;28;20199;-82
2022/11/05 07:37:33;;;;;;;51.80;26.27;;;;;;;14.07;93.29;94262.69;5031451;28;20203;-80
2022/11/05 07:40:02;;;;;;;49.60;25.53;;;;;;;14.14;92.78;94250.19;5031230;28;20202;-80
2022/11/05 07:42:31;;;;;;;43.03;25.50;;;;;;;14.27;93.04;94257.59;5020836;28;20249;-80
2022/11/05 07:44:59;;;;;;;43.00;25.57;;;;;;;14.37;92.57;94251.72;5034770;28;20198;-79
2022/11/05 07:47:26;;;;;;;46.13;25.73;;;;;;;14.53;91.32;94250.75;5018639;28;20195;-79
2022/11/05 07:49:53;;;;;;;47.47;25.27;;;;;;;14.51;89.83;94237.94;5021455;28;20864;-80
2022/11/05 07:52:20;;;;;;;42.33;25.03;;;;;;;14.54;90.42;94253.13;5026271;28;20219;-80
2022/11/05 07:54:46;;;;;;;39.33;23.77;;;;;;;14.27;89.67;94256.81;5039780;28;20206;-80
2022/11/05 07:57:13;;;;;;;43.47;23.87;;;;;;;14.00;91.53;94243.78;5021977;28;20206;-77
2022/11/05 07:59:41;;;;;;;45.43;25.60;;;;;;;13.72;94.83;94228.41;5025838;28;20233;-81
2022/11/05 08:02:10;;;;;;;41.17;23.97;;;;;;;13.97;94.16;94237.25;5026099;28;20202;-80
2022/11/05 08:04:39;;;;;;;41.00;22.53;;;;;;;13.97;92.77;94236.44;5026465;28;20210;-82
2022/11/05 08:07:05;;;;;;;42.93;23.80;;;;;;;13.88;93.44;94227.50;5021422;28;20206;-80
2022/11/05 08:09:32;;;;;;;36.23;23.70;;;;;;;13.98;93.91;94224.97;5025563;28;20203;-79
2022/11/05 08:12:00;;;;;;;41.23;23.80;;;;;;;14.23;92.80;94234.84;5023773;28;20309;-78
2022/11/05 08:14:26;;;;;;;43.13;23.50;;;;;;;14.41;91.60;94234.47;5024817;28;20202;-78
2022/11/05 08:16:54;;;;;;;43.07;23.37;;;;;;;14.63;89.90;94229.91;5021166;28;20195;-78
2022/11/05 08:19:21;;;;;;;41.87;22.93;;;;;;;14.80;89.56;94230.53;5016661;28;20195;-78
2022/11/05 08:21:48;;;;;;;40.40;23.43;;;;;;;15.06;89.26;94234.06;5017065;28;20228;-78
2022/11/05 08:24:15;;;;;;;38.80;22.90;;;;;;;15.31;87.00;94234.94;5018467;28;20199;-78
2022/11/05 08:26:41;;;;;;;42.00;22.20;;;;;;;15.47;87.14;94243.63;5018198;28;20191;-78
2022/11/05 08:29:08;;;;;;;41.93;24.33;;;;;;;15.57;85.49;94242.88;5022535;28;20206;-79
2022/11/05 08:31:35;;;;;;;41.57;23.60;;;;;;;15.72;85.29;94248.16;5018119;28;20227;-78
2022/11/05 08:34:07;;;;;;;41.40;23.43;;;;;;;15.89;83.28;94243.47;5017054;28;20880;-78
2022/11/05 08:36:36;;;;;;;39.97;24.03;;;;;;;15.91;83.11;94241.38;5019326;28;20331;-78
2022/11/05 08:39:03;;;;;;;41.67;23.57;;;;;;;16.01;82.78;94230.91;5019424;28;20191;-77
2022/11/05 08:41:30;;;;;;;40.43;23.73;;;;;;;16.13;82.01;94234.03;5019963;28;20288;-78
2022/11/05 08:43:57;;;;;;;40.47;22.73;;;;;;;16.09;81.78;94234.84;5016924;28;20218;-78
2022/11/05 08:46:23;;;;;;;40.03;23.30;;;;;;;15.59;83.88;94233.72;5020202;28;20282;-79
2022/11/05 08:48:51;;;;;;;37.17;23.03;;;;;;;15.22;86.62;94238.28;5022471;28;20191;-77
2022/11/05 08:51:20;;;;;;;42.40;22.23;;;;;;;15.42;85.19;94246.22;5023549;28;20202;-76
2022/11/05 08:53:47;;;;;;;38.60;21.90;;;;;;;15.60;85.91;94227.44;5018341;28;20207;-76
2022/11/05 08:56:15;;;;;;;38.30;21.50;;;;;;;15.82;83.22;94233.22;5016890;28;20261;-76
2022/11/05 08:58:42;;;;;;;33.63;19.77;;;;;;;15.98;82.56;94233.25;5017671;28;20194;-76
2022/11/05 09:01:08;;;;;;;32.17;19.47;;;;;;;16.18;81.51;94235.88;5021795;28;20199;-76
2022/11/05 09:03:36;;;;;;;34.73;19.13;;;;;;;16.33;81.14;94231.41;5018695;28;20350;-77
2022/11/05 09:06:02;;;;;;;38.40;19.83;;;;;;;16.45;80.30;94231.94;5017417;28;20195;-78
2022/11/05 09:08:31;;;;;;;34.57;19.77;;;;;;;16.51;80.61;94224.81;5016560;28;20191;-78
2022/11/05 09:10:57;;;;;;;38.43;20.27;;;;;;;16.64;79.60;94223.53;5021660;28;20207;-77
2022/11/05 09:13:24;;;;;;;36.93;18.47;;;;;;;16.67;79.22;94223.00;5017922;28;20222;-77
2022/11/05 09:15:51;;;;;;;34.23;19.27;;;;;;;16.72;79.56;94225.63;5015618;28;20263;-78
2022/11/05 09:18:19;;;;;;;34.50;18.43;;;;;;;16.80;79.28;94228.47;5019239;28;20236;-82
2022/11/05 09:20:47;;;;;;;37.47;18.73;;;;;;;16.87;78.29;94229.00;5022364;28;20206;-81
2022/11/05 09:23:14;;;;;;;34.80;19.70;;;;;;;16.22;80.40;94226.47;5026195;28;20295;-81
2022/11/05 09:25:43;;;;;;;33.67;19.53;;;;;;;16.02;81.67;94216.72;5031643;28;20616;-79
2022/11/05 09:28:15;;;;;;;34.80;18.67;;;;;;;16.44;81.55;94219.09;5027598;28;20808;-80
2022/11/05 09:30:44;;;;;;;32.63;18.73;;;;;;;16.49;78.51;94205.94;5022360;28;21066;-81
2022/11/05 09:33:11;;;;;;;38.70;18.90;;;;;;;16.37;79.83;94208.84;5023557;28;20994;-78
2022/11/05 09:35:39;;;;;;;34.90;18.87;;;;;;;16.35;80.15;94199.69;5025302;28;20206;-81
2022/11/05 09:38:06;;;;;;;34.93;19.57;;;;;;;16.46;79.65;94203.84;5026126;28;20233;-79
2022/11/05 09:40:38;;;;;;;33.87;19.13;;;;;;;16.55;79.23;94204.94;5023577;28;20797;-80
2022/11/05 09:43:07;;;;;;;35.43;19.17;;;;;;;16.70;78.05;94206.72;5025722;28;20195;-81
2022/11/05 09:45:35;;;;;;;35.80;18.70;;;;;;;16.86;78.08;94206.41;5032252;28;20212;-82
2022/11/05 09:48:07;;;;;;;34.50;18.97;;;;;;;17.15;77.91;94200.53;5036766;28;20195;-81
2022/11/05 09:50:39;;;;;;;31.57;18.27;;;;;;;17.79;75.62;94200.47;5023425;28;20191;-81
2022/11/05 09:53:06;;;;;;;33.03;17.87;;;;;;;18.31;72.38;94207.69;5031872;28;20573;-79
2022/11/05 09:55:37;;;;;;;31.83;17.65;;;;;;;18.53;70.16;94181.72;5028423;28;20209;-81
2022/11/05 09:58:13;;;;;;;33.42;17.20;;;;;;;18.55;68.28;94200.69;5022431;28;20624;-79
2022/11/05 10:00:41;;;;;;;31.02;17.10;;;;;;;18.45;69.16;94198.09;5024479;28;20202;-81
2022/11/05 10:03:13;;;;;;;31.33;17.52;;;;;;;18.47;69.50;94196.00;5037654;28;20217;-82
2022/11/05 10:05:41;;;;;;;32.08;17.40;;;;;;;18.60;68.23;94208.53;5022090;28;20265;-80
2022/11/05 10:08:15;;;;;;;29.17;17.08;;;;;;;18.69;68.63;94191.84;5033018;28;20199;-80
2022/11/05 10:10:46;;;;;;;31.45;16.02;;;;;;;18.98;68.15;94196.28;5023071;28;20294;-80
2022/11/05 10:13:23;;;;;;;29.75;16.20;;;;;;;19.48;66.88;94195.66;5018905;28;20219;-78
2022/11/05 10:15:58;;;;;;;28.55;17.40;;;;;;;19.57;64.25;94190.53;5019951;28;20670;-78
2022/11/05 10:18:28;;;;;;;32.95;16.73;;;;;;;19.41;64.27;94189.19;5020668;28;20665;-79
2022/11/05 10:20:56;;;;;;;26.92;16.70;;;;;;;19.19;64.97;94187.84;5021009;28;20559;-79
2022/11/05 10:23:25;;;;;;;27.83;16.58;;;;;;;19.09;66.44;94198.50;5017335;28;20242;-79
2022/11/05 10:25:56;;;;;;;34.20;17.98;;;;;;;19.04;66.91;94193.31;5033119;28;20202;-79
2022/11/05 10:28:26;;;;;;;33.72;16.73;;;;;;;19.00;67.02;94186.22;5032985;28;20202;-80
2022/11/05 10:30:57;;;;;;;28.73;17.35;;;;;;;18.95;66.63;94183.66;5028762;28;20206;-79
2022/11/05 10:33:30;;;;;;;27.90;16.85;;;;;;;18.90;66.88;94183.72;5028939;28;20210;-79
2022/11/05 10:36:05;;;;;;;32.05;15.38;;;;;;;18.81;66.73;94175.66;5026753;28;20206;-78
2022/11/05 10:38:33;;;;;;;26.85;15.98;;;;;;;18.84;66.54;94180.38;5023583;28;20190;-79
2022/11/05 10:41:17;;;;;;;29.52;15.68;;;;;;;18.88;66.45;94188.47;5024084;28;20918;-79
2022/11/05 10:43:51;;;;;;;35.35;15.43;;;;;;;18.76;65.77;94180.19;5020239;28;20202;-80
2022/11/05 10:46:29;;;;;;;25.52;14.43;;;;;;;18.34;66.52;94178.22;5028452;28;20900;-79
2022/11/05 10:49:07;;;;;;;29.38;14.93;;;;;;;17.81;67.96;94179.94;5044404;28;20229;-79
2022/11/05 10:51:34;;;;;;;23.25;14.85;;;;;;;17.94;68.77;94166.19;5036966;28;20191;-78
2022/11/05 10:54:05;;;;;;;25.42;14.15;;;;;;;18.11;68.73;94169.22;5021803;28;20217;-79
2022/11/05 10:56:36;;;;;;;26.77;14.77;;;;;;;18.43;66.96;94171.28;5031461;28;20700;-80
2022/11/05 10:59:07;;;;;;;29.15;14.23;;;;;;;18.70;66.04;94174.97;5030300;28;20198;-78
2022/11/05 11:01:34;;;;;;;23.33;13.50;;;;;;;19.09;63.65;94171.38;5049773;28;20238;-79
2022/11/05 11:04:08;;;;;;;22.42;14.60;;;;;;;19.39;63.58;94173.66;5035448;28;20888;-80
2022/11/05 11:06:38;;;;;;;23.35;13.65;;;;;;;19.62;62.72;94164.91;5034307;28;20282;-80
2022/11/05 11:09:08;;;;;;;23.05;14.70;;;;;;;19.78;62.81;94165.44;5036348;28;20215;-78
2022/11/05 11:11:37;;;;;;;23.70;13.50;;;;;;;19.93;61.63;94154.69;5041607;28;20229;-80
2022/11/05 11:14:21;;;;;;;25.77;14.68;;;;;;;19.50;61.61;94156.63;5039425;28;20218;-79
2022/11/05 11:16:50;;;;;;;33.90;15.45;;;;;;;18.72;63.78;94151.00;5042603;28;20658;-79
2022/11/05 11:19:31;;;;;;;23.52;15.02;;;;;;;18.33;65.82;94151.09;5036781;28;20226;-80
2022/11/05 11:22:21;;;;;;;25.48;14.25;;;;;;;18.40;64.34;94150.78;5039649;28;20238;-81
2022/11/05 11:24:52;;;;;;;23.85;13.85;;;;;;;18.33;65.28;94150.31;5026718;28;20194;-81
2022/11/05 11:27:24;;;;;;;28.42;13.95;;;;;;;17.95;66.36;94152.75;5024747;28;20198;-80
2022/11/05 11:29:57;;;;;;;24.33;14.60;;;;;;;17.62;67.89;94147.50;5031876;28;20205;-80
2022/11/05 11:32:27;;;;;;;29.58;14.52;;;;;;;17.72;66.73;94144.81;5038349;28;20257;-81
2022/11/05 11:34:56;;;;;;;25.80;13.35;;;;;;;17.90;66.40;94147.53;5029303;28;20203;-80
2022/11/05 11:37:26;;;;;;;34.03;14.48;;;;;;;18.11;66.63;94141.06;5024938;28;20200;-80
2022/11/05 11:39:57;;;;;;;29.30;13.60;;;;;;;18.29;65.72;94146.69;5028059;28;20207;-82
2022/11/05 11:42:30;;;;;;;27.02;14.25;;;;;;;18.46;64.74;94147.03;5021391;28;20574;-80
2022/11/05 11:45:01;;;;;;;24.48;13.90;;;;;;;18.51;64.03;94141.75;5035015;28;20661;-80
2022/11/05 11:47:29;;;;;;;25.17;14.13;;;;;;;18.57;63.90;94143.28;5023853;28;20199;-80
2022/11/05 11:49:58;;;;;;;21.35;14.02;;;;;;;18.68;63.70;94148.16;5026185;28;20203;-79
2022/11/05 11:52:28;;;;;;;24.45;13.18;;;;;;;18.73;63.70;94151.81;5027037;28;20222;-82
2022/11/05 11:55:17;;;;;;;30.70;14.07;;;;;;;18.75;64.36;94144.41;5028927;28;20198;-81
2022/11/05 11:57:45;;;;;;;24.05;13.25;;;;;;;18.77;64.04;94142.25;5024594;28;20202;-80
2022/11/05 12:00:15;;;;;;;29.83;13.73;;;;;;;18.66;62.53;94128.44;5029976;28;20248;-81
2022/11/05 12:02:57;;;;;;;24.45;12.93;;;;;;;18.72;62.94;94129.94;5034738;28;20210;-80
2022/11/05 12:05:33;;;;;;;21.00;11.63;;;;;;;18.69;62.29;94136.56;5026345;28;20231;-79
2022/11/05 12:08:13;;;;;;;30.02;13.15;;;;;;;18.68;62.73;94144.72;5024556;28;20195;-78
2022/11/05 12:10:51;;;;;;;26.55;12.80;;;;;;;18.64;62.68;94139.22;5016264;28;20214;-79
2022/11/05 12:13:54;;;;;;;22.05;13.10;;;;;;;18.61;62.22;94128.50;5017702;28;20223;-81